SHEC weather

Public forecast

Using degrees Celsius for public forecast. Weather courtesy of forecast.io.

Closest aviation weather report (METAR) to Edificio Bank Boston Heliport

Closest report is Eulogio Sánchez Airport, 3.4 nm (6.4 km) SE. Retrieved 2020/08/11 19:00 UTC (30 minutes ago):

SCTB 111900Z 26004KT CAVOK 16/M02 Q1015

Closest aviation forecast (TAF) to Edificio Bank Boston Heliport

Closest forecast is Comodoro Arturo Merino Benítez International Airport, 9.8 nm (18.2 km) W. Retrieved 2020/08/11 18:00 UTC (2 hours ago):

TAF SCEL 111635Z 1118/1218 19008KT CAVOK TX17/1118Z TN01/1210Z BECMG 1201/1203 16004KT BECMG 1206/1208 VRB02KT 7000 NSC TEMPO 1209/1212 5000 BR BECMG 1214/1216 17005KT CAVOK